Time;durP1;ratioP1;P1;durP2;ratioP2;P2;SDS_P1;SDS_P2;PMS_P1;PMS_P2;Temp;Humidity;BMP_temperature;BMP_pressure;BME280_temperature;BME280_humidity;BME280_pressure;Samples;Min_cycle;Max_cycle;Signal;HPM_P1;HPM_P2
2023/08/09 00:02:06;;;;;;;6.00;3.78;;;;;;;14.61;100.00;99272.75;5010342;28;20052;-81
2023/08/09 00:04:31;;;;;;;4.53;4.13;;;;;;;14.80;100.00;99298.53;5010703;28;20095;-81
2023/08/09 00:06:57;;;;;;;5.25;3.92;;;;;;;14.79;100.00;99296.84;4993725;28;20044;-81
2023/08/09 00:09:22;;;;;;;3.75;3.30;;;;;;;14.66;100.00;99272.41;5010388;28;20466;-81
2023/08/09 00:11:48;;;;;;;4.43;3.67;;;;;;;14.85;100.00;99306.91;5010020;28;20041;-81
2023/08/09 00:14:13;;;;;;;4.28;3.58;;;;;;;14.84;100.00;99305.22;4993668;28;20049;-81
2023/08/09 00:16:38;;;;;;;4.88;3.40;;;;;;;14.85;100.00;99303.44;5010215;28;20022;-81
2023/08/09 00:19:04;;;;;;;4.82;3.58;;;;;;;14.87;100.00;99318.09;5009756;28;20517;-80
2023/08/09 00:21:29;;;;;;;4.28;3.38;;;;;;;14.87;100.00;99320.72;4993626;28;20033;-81
2023/08/09 00:23:55;;;;;;;3.50;3.20;;;;;;;14.77;100.00;99311.00;5040116;28;20041;-81
2023/08/09 00:26:20;;;;;;;6.25;3.45;;;;;;;14.76;100.00;99306.72;5051621;28;20029;-81
2023/08/09 00:28:46;;;;;;;3.67;3.35;;;;;;;14.57;100.00;99286.16;5033807;28;20033;-81
2023/08/09 00:31:12;;;;;;;5.95;3.50;;;;;;;14.82;100.00;99327.25;5052264;28;20028;-80
2023/08/09 00:33:37;;;;;;;3.30;2.97;;;;;;;14.82;100.00;99332.50;5052297;28;20468;-81
2023/08/09 00:36:02;;;;;;;3.00;2.80;;;;;;;14.82;100.00;99316.75;5052192;28;20100;-81
2023/08/09 00:38:28;;;;;;;3.40;3.10;;;;;;;14.80;100.00;99330.00;5052456;28;20056;-81
2023/08/09 00:40:53;;;;;;;3.67;3.03;;;;;;;14.63;100.00;99299.69;5052653;28;20032;-81
2023/08/09 00:43:19;;;;;;;3.67;3.28;;;;;;;14.76;100.00;99325.91;5029570;28;20069;-81
2023/08/09 00:45:46;;;;;;;4.03;2.90;;;;;;;14.66;100.00;99296.88;5029300;28;20052;-81
2023/08/09 00:48:12;;;;;;;3.33;2.78;;;;;;;14.57;100.00;99294.84;5012870;28;20150;-81
2023/08/09 00:50:39;;;;;;;5.60;2.47;;;;;;;14.82;100.00;99335.94;5029629;28;20112;-81
2023/08/09 00:53:05;;;;;;;4.47;3.58;;;;;;;14.73;100.00;99308.59;5029193;28;20231;-81
2023/08/09 00:55:30;;;;;;;4.30;3.20;;;;;;;14.53;100.00;99284.69;5012846;28;20029;-81
2023/08/09 00:57:55;;;;;;;3.25;2.95;;;;;;;14.72;100.00;99327.88;5029588;28;20060;-81
2023/08/09 01:00:21;;;;;;;3.35;2.88;;;;;;;14.61;100.00;99301.56;5029627;28;20034;-81
2023/08/09 01:02:46;;;;;;;4.30;3.10;;;;;;;14.80;100.00;99340.47;5012683;28;20045;-81
2023/08/09 01:05:12;;;;;;;3.38;3.08;;;;;;;14.56;100.00;99305.47;5029408;28;20116;-81
2023/08/09 01:07:50;;;;;;;4.47;2.83;;;;;;;14.73;100.00;99331.34;5029408;28;20030;-81
2023/08/09 01:10:22;;;;;;;3.20;2.90;;;;;;;14.65;100.00;99317.94;5009426;28;20389;-81
2023/08/09 01:13:01;;;;;;;3.45;3.15;;;;;;;14.45;100.00;99291.28;5008950;28;20085;-81
2023/08/09 01:15:27;;;;;;;3.95;3.55;;;;;;;14.59;100.00;99320.97;5028710;28;20060;-80
2023/08/09 01:17:55;;;;;;;4.43;3.10;;;;;;;14.67;100.00;99332.63;5028996;28;20103;-81
2023/08/09 01:20:23;;;;;;;3.83;3.42;;;;;;;14.45;100.00;99299.16;5029140;28;20073;-80
2023/08/09 01:22:59;;;;;;;3.65;3.35;;;;;;;14.48;100.00;99311.19;5028950;28;20033;-81
2023/08/09 01:25:24;;;;;;;6.45;4.28;;;;;;;14.21;100.00;99272.00;5029073;28;20177;-80
2023/08/09 01:27:51;;;;;;;4.40;4.00;;;;;;;14.27;100.00;99297.75;5012409;28;20061;-81
2023/08/09 01:30:16;;;;;;;3.75;3.40;;;;;;;14.43;100.00;99332.47;5029196;28;20128;-81
2023/08/09 01:32:42;;;;;;;5.10;3.90;;;;;;;14.37;100.00;99321.56;5012619;28;20253;-81
2023/08/09 01:35:09;;;;;;;4.25;3.85;;;;;;;14.29;100.00;99316.84;5028826;28;20042;-80
2023/08/09 01:37:42;;;;;;;4.50;3.30;;;;;;;14.30;100.00;99330.78;5029411;28;20647;-80
2023/08/09 01:40:11;;;;;;;5.05;4.50;;;;;;;13.93;100.00;99280.84;5033398;28;20049;-80
2023/08/09 01:42:39;;;;;;;6.13;4.65;;;;;;;14.12;100.00;99322.38;5055513;28;20078;-81
2023/08/09 01:45:07;;;;;;;4.22;3.80;;;;;;;13.84;100.00;99289.31;5037037;28;20021;-81
2023/08/09 01:47:34;;;;;;;5.30;3.80;;;;;;;13.60;100.00;99262.94;5054990;28;20423;-80
2023/08/09 01:50:00;;;;;;;5.68;3.80;;;;;;;13.67;100.00;99277.31;5054713;28;20060;-81
2023/08/09 01:52:25;;;;;;;5.93;4.35;;;;;;;13.86;100.00;99314.47;5055391;28;20036;-81
2023/08/09 01:54:50;;;;;;;4.80;4.03;;;;;;;13.68;100.00;99281.59;5036860;28;20537;-80
2023/08/09 01:57:16;;;;;;;9.00;5.07;;;;;;;13.71;100.00;99305.81;5054879;28;20053;-80
2023/08/09 01:59:44;;;;;;;7.18;5.10;;;;;;;13.74;100.00;99310.03;5036808;28;20037;-81
2023/08/09 02:02:09;;;;;;;7.03;5.43;;;;;;;13.69;100.00;99310.31;5054438;28;20492;-80
2023/08/09 02:04:35;;;;;;;6.63;4.93;;;;;;;13.35;100.00;99255.84;5054624;28;20029;-81
2023/08/09 02:07:01;;;;;;;9.00;5.07;;;;;;;13.41;100.00;99273.78;5054449;28;20021;-81
2023/08/09 02:09:30;;;;;;;5.35;4.20;;;;;;;13.63;100.00;99322.94;5036672;28;20036;-81
2023/08/09 02:11:55;;;;;;;5.25;3.90;;;;;;;13.46;100.00;99303.94;5036470;28;20036;-81
2023/08/09 02:14:21;;;;;;;4.55;3.95;;;;;;;13.53;100.00;99321.88;5036496;28;20052;-81
2023/08/09 02:16:46;;;;;;;6.32;4.40;;;;;;;13.50;100.00;99316.81;5054411;28;20037;-81
2023/08/09 02:19:12;;;;;;;7.22;4.65;;;;;;;13.09;100.00;99250.47;5054532;28;20090;-81
2023/08/09 02:21:38;;;;;;;5.65;4.90;;;;;;;13.08;100.00;99256.66;5036848;28;20021;-81
2023/08/09 02:24:05;;;;;;;4.72;3.78;;;;;;;13.41;100.00;99307.78;5054448;28;20056;-80
2023/08/09 02:26:31;;;;;;;4.35;3.85;;;;;;;13.12;100.00;99267.75;5036510;28;20025;-81
2023/08/09 02:28:56;;;;;;;4.65;3.72;;;;;;;13.23;100.00;99288.84;5054111;28;20029;-81
2023/08/09 02:31:22;;;;;;;5.57;4.00;;;;;;;13.18;100.00;99289.09;5054442;28;20052;-80
2023/08/09 02:33:47;;;;;;;7.68;4.78;;;;;;;13.23;100.00;99315.00;5054320;28;20753;-80
2023/08/09 02:36:12;;;;;;;5.25;4.05;;;;;;;13.26;100.00;99330.50;5036382;28;20488;-80
2023/08/09 02:38:38;;;;;;;6.25;3.88;;;;;;;13.21;100.00;99333.38;5054483;28;20056;-81
2023/08/09 02:41:06;;;;;;;5.07;3.97;;;;;;;13.19;100.00;99330.03;5054146;28;20035;-80
2023/08/09 02:43:31;;;;;;;6.47;4.32;;;;;;;13.09;100.00;99323.69;5054499;28;20036;-80
2023/08/09 02:45:57;;;;;;;5.50;3.70;;;;;;;13.14;100.00;99329.47;5036750;28;20021;-81
2023/08/09 02:48:24;;;;;;;4.75;3.85;;;;;;;13.12;100.00;99333.13;5055429;28;20117;-81
2023/08/09 02:50:49;;;;;;;4.95;3.65;;;;;;;12.99;100.00;99318.19;5054962;28;20368;-81
2023/08/09 02:53:17;;;;;;;4.90;3.17;;;;;;;12.82;100.00;99280.97;5037220;28;20031;-81
2023/08/09 02:55:43;;;;;;;4.95;3.47;;;;;;;12.97;100.00;99314.81;5037256;28;20415;-80
2023/08/09 02:58:08;;;;;;;5.70;3.50;;;;;;;12.95;100.00;99319.31;5066155;28;20084;-80
2023/08/09 03:00:34;;;;;;;4.53;3.63;;;;;;;12.68;100.00;99272.22;5058299;28;20036;-81
2023/08/09 03:03:00;;;;;;;3.97;3.47;;;;;;;13.01;100.00;99327.72;5076655;28;20013;-81
2023/08/09 03:05:27;;;;;;;5.05;3.42;;;;;;;12.90;100.00;99316.16;5073433;28;20032;-81
2023/08/09 03:07:53;;;;;;;5.47;3.83;;;;;;;12.83;100.00;99311.38;5059105;28;20025;-81
2023/08/09 03:10:19;;;;;;;3.95;3.55;;;;;;;12.91;100.00;99330.91;5060235;28;20055;-81
2023/08/09 03:12:44;;;;;;;4.82;3.40;;;;;;;12.86;100.00;99324.28;5056946;28;20045;-81
2023/08/09 03:15:10;;;;;;;5.18;3.63;;;;;;;12.95;100.00;99349.84;5035668;28;20031;-80
2023/08/09 03:17:36;;;;;;;3.72;3.38;;;;;;;12.89;100.00;99343.22;5053439;28;20029;-80
2023/08/09 03:20:13;;;;;;;9.35;3.75;;;;;;;12.79;100.00;99312.50;5053037;28;20105;-81
2023/08/09 03:22:38;;;;;;;3.88;3.47;;;;;;;12.76;100.00;99307.47;5035493;28;20475;-80
2023/08/09 03:25:04;;;;;;;5.80;3.58;;;;;;;12.92;100.00;99342.19;5053158;28;20056;-80
2023/08/09 03:27:29;;;;;;;6.72;3.90;;;;;;;12.86;100.00;99338.19;5035228;28;20127;-81
2023/08/09 03:29:55;;;;;;;4.85;3.63;;;;;;;12.71;100.00;99318.19;5052982;28;20108;-80
2023/08/09 03:32:20;;;;;;;3.75;3.35;;;;;;;12.67;100.00;99317.53;5053210;28;20033;-80
2023/08/09 03:34:45;;;;;;;4.78;4.22;;;;;;;12.56;100.00;99314.75;5053344;28;20517;-80
2023/08/09 03:37:11;;;;;;;4.88;3.70;;;;;;;12.79;100.00;99357.78;5052846;28;20388;-80
2023/08/09 03:39:36;;;;;;;7.07;4.65;;;;;;;12.52;100.00;99312.41;5053233;28;20025;-80
2023/08/09 03:42:02;;;;;;;5.05;4.10;;;;;;;12.70;100.00;99358.34;5052784;28;20024;-80
2023/08/09 03:44:27;;;;;;;5.90;4.13;;;;;;;12.72;100.00;99362.53;5052870;28;20021;-80
2023/08/09 03:46:52;;;;;;;5.13;4.22;;;;;;;12.49;100.00;99323.88;5034948;28;21923;-80
2023/08/09 03:49:18;;;;;;;5.53;3.60;;;;;;;12.43;100.00;99317.25;5052729;28;20021;-81
2023/08/09 03:51:43;;;;;;;3.95;3.50;;;;;;;12.62;100.00;99335.28;5034797;28;20520;-80
2023/08/09 03:54:09;;;;;;;5.30;3.97;;;;;;;12.63;100.00;99334.31;5034612;28;20028;-80
2023/08/09 03:56:34;;;;;;;5.40;3.42;;;;;;;12.64;100.00;99329.94;5052983;28;20484;-80
2023/08/09 03:58:59;;;;;;;6.20;3.42;;;;;;;12.63;100.00;99330.88;5052674;28;20025;-80
2023/08/09 04:01:25;;;;;;;4.80;3.50;;;;;;;12.48;100.00;99289.09;5051937;28;20033;-80
2023/08/09 04:03:50;;;;;;;5.70;4.00;;;;;;;12.41;100.00;99266.03;5034597;28;20358;-80
2023/08/09 04:06:16;;;;;;;5.72;3.88;;;;;;;12.62;100.00;99305.69;5052370;28;20032;-80
2023/08/09 04:08:41;;;;;;;6.45;3.90;;;;;;;12.63;100.00;99282.06;5052411;28;20029;-81
2023/08/09 04:11:07;;;;;;;5.57;3.83;;;;;;;13.10;100.00;99303.59;5052431;28;20037;-81
2023/08/09 04:13:33;;;;;;;6.80;4.35;;;;;;;13.42;100.00;99294.59;5052197;28;20045;-80
2023/08/09 04:15:59;;;;;;;5.57;3.70;;;;;;;13.77;100.00;99286.25;5052349;28;20115;-81
2023/08/09 04:18:24;;;;;;;4.22;3.83;;;;;;;14.23;100.00;99294.50;5052335;28;20028;-80
2023/08/09 04:20:50;;;;;;;4.57;3.80;;;;;;;14.78;100.00;99282.06;5052405;28;20025;-81
2023/08/09 04:23:17;;;;;;;4.72;3.72;;;;;;;15.12;100.00;99300.66;5052246;28;20086;-81
2023/08/09 04:25:43;;;;;;;8.23;3.67;;;;;;;15.10;100.00;99295.53;5052325;28;20435;-81
2023/08/09 04:28:08;;;;;;;5.65;3.65;;;;;;;15.06;100.00;99298.47;5051876;28;20064;-81
2023/08/09 04:30:35;;;;;;;3.97;3.33;;;;;;;14.84;100.00;99276.41;5052100;28;20029;-81
2023/08/09 04:33:03;;;;;;;4.28;3.83;;;;;;;14.81;100.00;99292.34;5052047;28;20044;-81
2023/08/09 04:35:33;;;;;;;5.53;4.35;;;;;;;14.75;100.00;99294.53;5052206;28;20043;-80
2023/08/09 04:37:58;;;;;;;4.35;3.78;;;;;;;14.72;100.00;99280.69;5034264;28;20029;-80
2023/08/09 04:40:25;;;;;;;4.32;3.13;;;;;;;14.98;100.00;99304.25;5051995;28;20070;-81
2023/08/09 04:42:51;;;;;;;3.95;3.53;;;;;;;15.43;100.00;99294.91;5033984;28;20028;-80
2023/08/09 04:45:16;;;;;;;7.35;4.18;;;;;;;16.08;100.00;99290.19;5051836;28;20027;-81
2023/08/09 04:47:42;;;;;;;4.45;3.47;;;;;;;17.20;100.00;99304.28;5033926;28;20127;-81
2023/08/09 04:50:08;;;;;;;5.05;3.13;;;;;;;17.32;98.52;99268.28;5033996;28;20029;-81
2023/08/09 04:52:35;;;;;;;3.92;3.00;;;;;;;17.21;97.50;99294.59;5034169;28;20036;-81
2023/08/09 04:55:02;;;;;;;4.53;3.40;;;;;;;16.95;98.39;99320.34;5051810;28;20108;-81
2023/08/09 04:57:28;;;;;;;5.50;3.35;;;;;;;16.70;99.48;99316.13;5033737;28;20467;-81
2023/08/09 04:59:53;;;;;;;3.72;3.35;;;;;;;16.32;100.00;99277.00;5051764;28;20068;-81
2023/08/09 05:02:19;;;;;;;8.73;3.53;;;;;;;16.69;100.00;99294.25;5051466;28;20400;-81
2023/08/09 05:04:44;;;;;;;4.47;2.90;;;;;;;17.01;100.00;99261.97;5033967;28;20072;-81
2023/08/09 05:07:09;;;;;;;3.40;3.10;;;;;;;17.81;96.42;99287.97;5033714;28;20056;-81
2023/08/09 05:09:35;;;;;;;4.60;3.17;;;;;;;18.43;92.32;99275.78;5051816;28;20071;-81
2023/08/09 05:12:00;;;;;;;3.88;3.28;;;;;;;19.41;89.09;99317.44;5052660;28;20033;-81
2023/08/09 05:14:26;;;;;;;3.80;3.08;;;;;;;19.48;87.41;99294.81;5055580;28;20049;-81
2023/08/09 05:16:52;;;;;;;4.90;3.05;;;;;;;19.51;87.74;99317.44;5055851;28;20406;-80
2023/08/09 05:19:18;;;;;;;6.25;3.90;;;;;;;19.03;87.94;99300.53;5055623;28;20029;-81
2023/08/09 05:21:43;;;;;;;3.63;2.95;;;;;;;18.76;88.78;99313.47;5055534;28;20083;-81
2023/08/09 05:24:08;;;;;;;3.78;2.88;;;;;;;18.70;88.58;99320.09;5055400;28;20078;-81
2023/08/09 05:26:34;;;;;;;3.47;3.17;;;;;;;18.51;90.10;99306.78;5055481;28;20105;-81
2023/08/09 05:28:59;;;;;;;4.63;3.50;;;;;;;18.60;89.11;99316.56;5055533;28;20032;-81
2023/08/09 05:31:25;;;;;;;5.05;3.20;;;;;;;18.54;87.06;99283.63;5055221;28;20059;-80
2023/08/09 05:33:50;;;;;;;6.05;3.63;;;;;;;18.51;86.67;99296.25;5055516;28;20361;-81
2023/08/09 05:36:15;;;;;;;5.65;3.28;;;;;;;18.41;87.53;99312.00;5055195;28;20427;-80
2023/08/09 05:38:40;;;;;;;4.75;2.88;;;;;;;18.32;89.66;99291.69;5055281;28;20060;-80
2023/08/09 05:41:06;;;;;;;5.15;3.22;;;;;;;18.60;90.97;99320.03;5054886;28;20017;-81
2023/08/09 05:43:32;;;;;;;5.70;3.58;;;;;;;18.44;89.50;99295.91;5055360;28;20040;-81
2023/08/09 05:45:57;;;;;;;5.18;3.20;;;;;;;18.63;89.61;99318.94;5055222;28;20021;-80
2023/08/09 05:48:22;;;;;;;4.93;3.08;;;;;;;18.75;88.82;99304.72;5054789;28;20652;-80
2023/08/09 05:50:48;;;;;;;3.83;3.05;;;;;;;19.15;87.20;99341.69;5055303;28;20079;-81
2023/08/09 05:53:13;;;;;;;3.90;3.08;;;;;;;19.32;87.98;99334.09;5055527;28;20108;-80
2023/08/09 05:55:40;;;;;;;5.18;3.03;;;;;;;19.58;86.91;99342.38;5055623;28;20052;-81
2023/08/09 05:58:05;;;;;;;4.78;3.00;;;;;;;19.53;87.44;99326.91;5055603;28;20033;-80
2023/08/09 06:00:31;;;;;;;3.45;2.90;;;;;;;19.61;86.22;99345.59;5055076;28;20048;-81
2023/08/09 06:02:57;;;;;;;4.47;2.80;;;;;;;19.57;87.63;99351.25;5054787;28;20084;-81
2023/08/09 06:05:25;;;;;;;3.63;3.03;;;;;;;19.59;87.81;99350.16;5055025;28;20371;-79
2023/08/09 06:07:51;;;;;;;3.30;3.00;;;;;;;19.52;87.06;99353.47;5037367;28;20028;-81
2023/08/09 06:10:16;;;;;;;3.30;3.00;;;;;;;19.30;87.43;99326.31;5054451;28;20021;-80
2023/08/09 06:12:42;;;;;;;4.32;3.30;;;;;;;19.28;87.67;99340.63;5054806;28;20032;-80
2023/08/09 06:15:07;;;;;;;4.38;2.88;;;;;;;19.26;88.48;99350.50;5037156;28;20037;-80
2023/08/09 06:17:33;;;;;;;5.30;3.17;;;;;;;19.02;88.28;99342.91;5054585;28;20037;-81
2023/08/09 06:19:59;;;;;;;4.43;3.28;;;;;;;19.00;89.37;99368.56;5054728;28;20127;-80
2023/08/09 06:22:24;;;;;;;5.80;3.53;;;;;;;18.87;90.77;99374.91;5054248;28;20035;-80
2023/08/09 06:24:50;;;;;;;5.03;3.40;;;;;;;18.73;92.00;99372.59;5054914;28;20079;-77
2023/08/09 06:27:15;;;;;;;4.88;3.30;;;;;;;18.75;92.39;99369.81;5037034;28;20050;-80
2023/08/09 06:29:40;;;;;;;6.65;3.40;;;;;;;18.65;92.80;99373.22;5054727;28;20029;-80
2023/08/09 06:32:06;;;;;;;4.82;3.40;;;;;;;18.56;92.74;99368.72;5054717;28;20032;-80
2023/08/09 06:34:32;;;;;;;5.38;3.53;;;;;;;18.43;93.67;99366.28;5055349;28;20044;-80
2023/08/09 06:36:57;;;;;;;6.18;3.55;;;;;;;18.18;93.49;99343.75;5055085;28;20029;-81
2023/08/09 06:39:22;;;;;;;4.22;3.83;;;;;;;18.11;94.02;99354.94;5036169;28;20462;-80
2023/08/09 06:41:49;;;;;;;3.95;3.55;;;;;;;17.85;95.38;99336.81;5054607;28;20433;-80
2023/08/09 06:44:15;;;;;;;4.60;3.22;;;;;;;17.94;95.99;99367.69;5036528;28;20039;-80
2023/08/09 06:46:40;;;;;;;4.60;3.80;;;;;;;17.76;97.46;99349.91;5054175;28;20465;-80
2023/08/09 06:49:05;;;;;;;4.32;3.20;;;;;;;17.87;97.80;99386.78;5054451;28;20036;-81
2023/08/09 06:51:31;;;;;;;4.82;3.67;;;;;;;17.69;98.43;99378.50;5054161;28;20028;-80
2023/08/09 06:53:56;;;;;;;4.90;3.60;;;;;;;17.40;97.68;99342.19;5054062;28;20029;-80
2023/08/09 06:56:21;;;;;;;5.70;3.78;;;;;;;17.35;99.47;99352.22;5054096;28;20017;-80
2023/08/09 06:58:47;;;;;;;6.28;4.68;;;;;;;17.26;100.00;99360.88;5054630;28;20029;-79
2023/08/09 07:01:12;;;;;;;4.63;3.65;;;;;;;17.41;99.96;99400.94;5036086;28;20074;-80
2023/08/09 07:03:37;;;;;;;5.75;3.90;;;;;;;17.24;100.00;99377.75;5053947;28;20025;-80
2023/08/09 07:06:03;;;;;;;4.35;3.95;;;;;;;17.10;100.00;99365.66;5052017;28;20106;-80
2023/08/09 07:08:29;;;;;;;4.00;3.25;;;;;;;17.04;100.00;99374.03;5053442;28;20040;-80
2023/08/09 07:10:55;;;;;;;8.65;4.20;;;;;;;17.15;100.00;99408.22;5053483;28;20029;-80
2023/08/09 07:13:21;;;;;;;6.30;4.20;;;;;;;17.05;100.00;99412.53;5053347;28;20045;-80
2023/08/09 07:15:46;;;;;;;7.00;4.35;;;;;;;16.88;100.00;99401.53;5035570;28;20399;-80
2023/08/09 07:18:12;;;;;;;4.82;3.70;;;;;;;16.70;100.00;99379.22;5053526;28;20029;-80
2023/08/09 07:20:37;;;;;;;4.55;3.83;;;;;;;16.71;100.00;99386.16;5035566;28;20098;-79
2023/08/09 07:23:02;;;;;;;6.30;4.55;;;;;;;16.88;100.00;99429.63;5053485;28;20024;-79
2023/08/09 07:25:28;;;;;;;5.75;4.68;;;;;;;16.77;100.00;99412.03;5053049;28;20052;-80
2023/08/09 07:27:54;;;;;;;6.47;4.22;;;;;;;16.59;100.00;99389.72;5053530;28;20463;-79
2023/08/09 07:30:19;;;;;;;6.43;4.70;;;;;;;16.60;100.00;99402.78;5035052;28;20029;-80
2023/08/09 07:32:46;;;;;;;5.72;3.90;;;;;;;16.71;100.00;99425.59;5053234;28;20032;-79
2023/08/09 07:35:12;;;;;;;7.95;4.53;;;;;;;16.79;100.00;99441.69;5052715;28;20465;-79
2023/08/09 07:37:40;;;;;;;6.40;3.90;;;;;;;16.79;100.00;99441.69;5041489;28;20036;-78
2023/08/09 07:40:07;;;;;;;4.70;4.13;;;;;;;16.50;100.00;99395.66;5054801;28;20479;-81
2023/08/09 07:42:34;;;;;;;7.70;5.03;;;;;;;16.81;100.00;99431.03;5054861;28;20486;-79
2023/08/09 07:45:00;;;;;;;4.85;4.35;;;;;;;16.63;100.00;99391.16;5072825;28;20106;-81
2023/08/09 07:47:25;;;;;;;5.22;3.90;;;;;;;16.69;100.00;99394.19;5072351;28;20592;-79
2023/08/09 07:49:50;;;;;;;7.95;4.43;;;;;;;16.71;100.00;99392.25;5054949;28;20028;-80
2023/08/09 07:52:16;;;;;;;5.60;4.18;;;;;;;16.86;100.00;99413.13;5072870;28;20036;-79
2023/08/09 07:54:41;;;;;;;5.70;4.82;;;;;;;16.86;100.00;99402.59;5066842;28;20021;-80
2023/08/09 07:57:06;;;;;;;7.30;3.58;;;;;;;16.81;100.00;99387.19;5051354;28;20499;-80
2023/08/09 07:59:32;;;;;;;4.13;3.40;;;;;;;17.00;100.00;99407.63;5051588;28;20017;-80
2023/08/09 08:01:58;;;;;;;5.20;3.65;;;;;;;17.02;100.00;99402.25;5051945;28;20017;-78
2023/08/09 08:04:24;;;;;;;7.28;4.43;;;;;;;16.91;100.00;99387.31;5052728;28;20053;-78
2023/08/09 08:06:49;;;;;;;4.70;3.72;;;;;;;17.07;100.00;99421.16;5052122;28;20464;-81
2023/08/09 08:09:16;;;;;;;4.20;3.50;;;;;;;16.71;100.00;99379.09;5052133;28;20029;-81
2023/08/09 08:11:42;;;;;;;6.18;3.97;;;;;;;16.48;100.00;99356.38;5054619;28;20061;-79
2023/08/09 08:14:09;;;;;;;6.65;3.90;;;;;;;16.79;100.00;99418.00;5060142;28;20037;-80
2023/08/09 08:16:35;;;;;;;6.35;3.83;;;;;;;16.70;100.00;99419.50;5059470;28;20025;-82
2023/08/09 08:19:01;;;;;;;5.80;4.18;;;;;;;16.60;100.00;99401.91;5062520;28;20052;-80
2023/08/09 08:21:27;;;;;;;5.47;4.00;;;;;;;16.43;100.00;99406.66;5043357;28;20067;-81
2023/08/09 08:23:53;;;;;;;4.78;4.13;;;;;;;16.36;100.00;99410.69;5059589;28;20119;-82
2023/08/09 08:26:18;;;;;;;5.82;4.72;;;;;;;16.33;100.00;99397.78;5054509;28;20025;-81
2023/08/09 08:28:44;;;;;;;6.13;3.80;;;;;;;16.51;100.00;99421.84;5052477;28;20380;-80
2023/08/09 08:31:09;;;;;;;5.97;4.45;;;;;;;16.50;100.00;99407.03;5052344;28;20061;-81
2023/08/09 08:33:35;;;;;;;6.05;4.50;;;;;;;16.56;100.00;99401.31;5052328;28;20078;-81
2023/08/09 08:36:00;;;;;;;6.47;4.22;;;;;;;16.59;100.00;99400.22;5052090;28;20060;-82
2023/08/09 08:38:26;;;;;;;4.93;3.92;;;;;;;16.64;100.00;99411.22;5034149;28;20078;-83
2023/08/09 08:40:52;;;;;;;7.13;4.13;;;;;;;16.52;100.00;99394.63;5034527;28;20021;-83
2023/08/09 08:43:17;;;;;;;7.55;4.68;;;;;;;16.57;100.00;99408.25;5052327;28;20551;-81
2023/08/09 08:45:47;;;;;;;7.60;4.93;;;;;;;16.52;100.00;99405.13;5052460;28;20021;-81
2023/08/09 08:48:13;;;;;;;6.63;4.93;;;;;;;16.49;100.00;99391.38;5028841;28;20042;-82
2023/08/09 08:50:39;;;;;;;7.90;4.50;;;;;;;16.55;100.00;99383.84;5029235;28;20045;-81
2023/08/09 08:53:06;;;;;;;6.25;5.25;;;;;;;16.57;100.00;99378.50;5029585;28;20507;-81
2023/08/09 08:55:32;;;;;;;6.82;4.90;;;;;;;16.55;100.00;99375.13;5029509;28;20036;-81
2023/08/09 08:57:57;;;;;;;5.75;4.18;;;;;;;16.17;100.00;99306.09;5030086;28;20046;-81
2023/08/09 09:00:23;;;;;;;6.50;4.28;;;;;;;16.61;100.00;99367.63;5029217;28;20057;-81
2023/08/09 09:02:49;;;;;;;5.82;5.07;;;;;;;16.73;100.00;99365.88;5029493;28;20076;-80
2023/08/09 09:05:18;;;;;;;6.53;4.60;;;;;;;16.40;100.00;99316.69;5012806;28;20060;-79
2023/08/09 09:07:45;;;;;;;5.75;4.78;;;;;;;16.76;100.00;99367.44;5029459;28;20037;-79
2023/08/09 09:10:12;;;;;;;6.35;4.60;;;;;;;16.82;100.00;99383.59;5029697;28;20096;-79
2023/08/09 09:12:38;;;;;;;5.00;4.20;;;;;;;16.98;100.00;99401.66;5028957;28;20572;-79
2023/08/09 09:15:06;;;;;;;5.65;4.55;;;;;;;16.83;100.00;99374.75;5029333;28;20030;-79
2023/08/09 09:17:39;;;;;;;6.47;5.63;;;;;;;16.97;100.00;99392.09;5029097;28;20036;-80
2023/08/09 09:20:13;;;;;;;6.53;4.45;;;;;;;16.71;100.00;99373.84;5048524;28;20065;-79
2023/08/09 09:22:39;;;;;;;4.97;4.25;;;;;;;16.86;100.00;99411.34;5051516;28;20040;-79
2023/08/09 09:25:10;;;;;;;6.45;4.70;;;;;;;16.82;100.00;99395.91;5051590;28;20036;-79
2023/08/09 09:27:37;;;;;;;4.88;3.85;;;;;;;16.91;100.00;99390.78;5051307;28;20029;-79
2023/08/09 09:30:12;;;;;;;5.30;4.03;;;;;;;16.59;100.00;99340.59;5033497;28;20023;-78
2023/08/09 09:32:40;;;;;;;4.95;4.03;;;;;;;16.69;100.00;99367.88;5050914;28;20041;-79
2023/08/09 09:35:08;;;;;;;5.82;4.93;;;;;;;16.67;100.00;99363.69;5051344;28;20476;-79
2023/08/09 09:37:35;;;;;;;6.18;3.70;;;;;;;16.65;100.00;99369.06;5051386;28;20033;-78
2023/08/09 09:40:00;;;;;;;5.03;4.32;;;;;;;16.55;100.00;99354.94;5051436;28;20025;-79
2023/08/09 09:42:31;;;;;;;4.78;4.05;;;;;;;16.93;100.00;99399.38;5051556;28;20095;-80
2023/08/09 09:45:09;;;;;;;7.07;4.47;;;;;;;16.95;100.00;99392.22;5033501;28;20033;-81
2023/08/09 09:47:39;;;;;;;4.82;4.32;;;;;;;16.99;100.00;99392.81;5033361;28;20025;-81
2023/08/09 09:50:09;;;;;;;5.68;4.50;;;;;;;16.91;100.00;99366.25;5051517;28;20052;-80
2023/08/09 09:52:36;;;;;;;5.57;4.18;;;;;;;16.98;100.00;99374.50;5051235;28;20033;-80
2023/08/09 09:55:02;;;;;;;4.72;4.20;;;;;;;17.06;100.00;99386.09;5051552;28;20021;-81
2023/08/09 09:57:28;;;;;;;5.35;3.40;;;;;;;16.87;100.00;99370.91;5032133;28;20063;-80
2023/08/09 09:59:59;;;;;;;5.60;4.22;;;;;;;16.80;100.00;99380.22;5053395;28;20419;-80
2023/08/09 10:02:31;;;;;;;5.50;3.65;;;;;;;16.62;100.00;99376.34;5054303;28;20116;-80
2023/08/09 10:05:01;;;;;;;6.32;3.85;;;;;;;16.36;100.00;99339.72;5055179;28;20104;-79
2023/08/09 10:07:30;;;;;;;3.65;3.20;;;;;;;16.58;100.00;99383.63;5054282;28;20035;-80
2023/08/09 10:10:00;;;;;;;4.28;3.33;;;;;;;16.61;100.00;99386.03;5054611;28;20393;-80
2023/08/09 10:12:26;;;;;;;3.45;3.15;;;;;;;16.49;100.00;99355.41;5054193;28;20079;-80
2023/08/09 10:14:52;;;;;;;4.25;3.22;;;;;;;16.58;100.00;99357.34;5054534;28;20024;-80
2023/08/09 10:17:19;;;;;;;5.07;2.65;;;;;;;16.65;100.00;99353.28;5054475;28;20410;-80
2023/08/09 10:19:45;;;;;;;4.32;3.38;;;;;;;16.91;100.00;99388.13;5054298;28;20029;-80
2023/08/09 10:22:12;;;;;;;2.85;2.40;;;;;;;16.93;100.00;99394.09;5054545;28;20079;-83
2023/08/09 10:24:44;;;;;;;4.15;2.83;;;;;;;16.98;100.00;99403.44;5053767;28;20029;-80
2023/08/09 10:27:11;;;;;;;2.67;2.40;;;;;;;16.92;100.00;99399.50;5054037;28;20040;-80
2023/08/09 10:29:40;;;;;;;2.95;2.67;;;;;;;16.91;100.00;99400.47;5053868;28;20082;-80
2023/08/09 10:32:06;;;;;;;3.25;2.95;;;;;;;16.89;100.00;99402.34;5053995;28;20032;-80
2023/08/09 10:34:41;;;;;;;2.70;2.50;;;;;;;17.04;100.00;99422.22;5053743;28;20428;-80
2023/08/09 10:37:09;;;;;;;3.80;3.40;;;;;;;17.05;100.00;99417.81;5053676;28;20036;-81
2023/08/09 10:39:36;;;;;;;3.92;2.30;;;;;;;17.01;100.00;99419.00;5053706;28;20025;-81
2023/08/09 10:42:08;;;;;;;2.72;2.20;;;;;;;16.64;100.00;99362.13;5054032;28;20163;-80
2023/08/09 10:44:40;;;;;;;2.35;2.15;;;;;;;17.01;100.00;99426.88;5049127;28;20495;-80
2023/08/09 10:47:10;;;;;;;2.83;2.58;;;;;;;16.95;100.00;99426.41;5053477;28;20029;-80
2023/08/09 10:49:47;;;;;;;3.63;2.53;;;;;;;16.91;100.00;99426.75;5053333;28;20033;-80
2023/08/09 10:52:15;;;;;;;2.67;2.47;;;;;;;16.66;100.00;99404.91;5054183;28;20052;-80
2023/08/09 10:54:41;;;;;;;2.72;2.50;;;;;;;16.69;100.00;99424.91;5053730;28;20021;-80
2023/08/09 10:57:09;;;;;;;4.72;2.58;;;;;;;16.51;100.00;99406.06;5052661;28;20033;-80
2023/08/09 10:59:35;;;;;;;3.05;2.75;;;;;;;16.61;100.00;99446.50;5053656;28;20535;-80
2023/08/09 11:02:01;;;;;;;4.63;2.97;;;;;;;16.32;100.00;99390.00;5053682;28;20025;-80
2023/08/09 11:04:26;;;;;;;3.30;2.78;;;;;;;16.49;100.00;99423.75;5053759;28;20353;-79
2023/08/09 11:06:52;;;;;;;3.05;2.78;;;;;;;16.32;100.00;99382.13;5053781;28;20487;-80
2023/08/09 11:09:21;;;;;;;3.75;3.03;;;;;;;16.27;100.00;99366.69;5053460;28;20024;-80
2023/08/09 11:11:47;;;;;;;4.70;2.95;;;;;;;16.30;100.00;99376.13;5053391;28;20028;-80
2023/08/09 11:14:19;;;;;;;6.85;3.38;;;;;;;16.17;100.00;99381.47;5053869;28;20049;-80
2023/08/09 11:16:44;;;;;;;;;;;;;;;16.26;100.00;99404.41;5053736;28;20033;-80
2023/08/09 11:19:14;;;;;;;5.75;3.50;;;;;;;16.25;100.00;99407.19;5053622;28;19916;-80
2023/08/09 11:21:46;;;;;;;4.82;3.65;;;;;;;16.28;100.00;99399.06;5051916;28;20214;-80
2023/08/09 11:24:12;;;;;;;4.63;3.17;;;;;;;16.19;100.00;99403.22;5053282;28;20484;-80